sensor_id;sensor_type;location;lat;lon;timestamp;temperature;humidity
8226;DHT22;4154;48.810;9.012;2024-03-02T00:00:20;7.40;99.90
8226;DHT22;4154;48.810;9.012;2024-03-02T00:02:48;7.40;99.90
8226;DHT22;4154;48.810;9.012;2024-03-02T00:05:20;7.40;99.90
8226;DHT22;4154;48.810;9.012;2024-03-02T00:07:53;7.50;99.90
8226;DHT22;4154;48.810;9.012;2024-03-02T00:10:22;7.50;99.90
8226;DHT22;4154;48.810;9.012;2024-03-02T00:12:57;7.50;99.90
8226;DHT22;4154;48.810;9.012;2024-03-02T00:18:11;8.10;99.90
8226;DHT22;4154;48.810;9.012;2024-03-02T00:20:38;7.50;99.90
8226;DHT22;4154;48.810;9.012;2024-03-02T00:23:07;7.50;99.90
8226;DHT22;4154;48.810;9.012;2024-03-02T00:25:46;7.40;99.80
8226;DHT22;4154;48.810;9.012;2024-03-02T00:28:17;7.40;99.90
8226;DHT22;4154;48.810;9.012;2024-03-02T00:33:41;7.40;99.90
8226;DHT22;4154;48.810;9.012;2024-03-02T00:36:08;7.50;99.90
8226;DHT22;4154;48.810;9.012;2024-03-02T00:38:48;7.50;99.80
8226;DHT22;4154;48.810;9.012;2024-03-02T00:41:29;7.50;99.80
8226;DHT22;4154;48.810;9.012;2024-03-02T00:44:00;7.50;99.90
8226;DHT22;4154;48.810;9.012;2024-03-02T00:46:33;7.50;99.90
8226;DHT22;4154;48.810;9.012;2024-03-02T00:51:48;7.40;99.90
8226;DHT22;4154;48.810;9.012;2024-03-02T00:54:22;7.40;99.90
8226;DHT22;4154;48.810;9.012;2024-03-02T00:56:55;7.40;99.90
8226;DHT22;4154;48.810;9.012;2024-03-02T00:59:22;7.40;99.90
8226;DHT22;4154;48.810;9.012;2024-03-02T01:01:49;7.40;99.90
8226;DHT22;4154;48.810;9.012;2024-03-02T01:04:15;7.40;99.90
8226;DHT22;4154;48.810;9.012;2024-03-02T01:06:42;7.30;99.90
8226;DHT22;4154;48.810;9.012;2024-03-02T01:09:08;7.30;99.90
8226;DHT22;4154;48.810;9.012;2024-03-02T01:11:34;7.30;99.90
8226;DHT22;4154;48.810;9.012;2024-03-02T01:14:00;7.30;99.90
8226;DHT22;4154;48.810;9.012;2024-03-02T01:16:25;7.90;99.90
8226;DHT22;4154;48.810;9.012;2024-03-02T01:18:51;7.30;99.90
8226;DHT22;4154;48.810;9.012;2024-03-02T01:23:43;7.20;99.90
8226;DHT22;4154;48.810;9.012;2024-03-02T01:26:09;7.20;99.90
8226;DHT22;4154;48.810;9.012;2024-03-02T01:28:34;7.20;99.90
8226;DHT22;4154;48.810;9.012;2024-03-02T01:33:27;7.10;99.90
8226;DHT22;4154;48.810;9.012;2024-03-02T01:35:53;7.10;99.90
8226;DHT22;4154;48.810;9.012;2024-03-02T01:38:18;7.10;99.90
8226;DHT22;4154;48.810;9.012;2024-03-02T01:40:44;7.10;99.90
8226;DHT22;4154;48.810;9.012;2024-03-02T01:43:10;7.00;99.90
8226;DHT22;4154;48.810;9.012;2024-03-02T01:45:36;7.00;99.90
8226;DHT22;4154;48.810;9.012;2024-03-02T01:48:06;6.90;99.90
8226;DHT22;4154;48.810;9.012;2024-03-02T01:50:32;6.90;99.90
8226;DHT22;4154;48.810;9.012;2024-03-02T01:52:59;6.90;99.90
8226;DHT22;4154;48.810;9.012;2024-03-02T01:55:26;7.40;99.90
8226;DHT22;4154;48.810;9.012;2024-03-02T01:57:54;6.70;99.90
8226;DHT22;4154;48.810;9.012;2024-03-02T02:00:21;6.90;99.90
8226;DHT22;4154;48.810;9.012;2024-03-02T02:02:48;6.90;99.90
8226;DHT22;4154;48.810;9.012;2024-03-02T02:05:14;6.90;99.90
8226;DHT22;4154;48.810;9.012;2024-03-02T02:07:42;6.90;99.90
8226;DHT22;4154;48.810;9.012;2024-03-02T02:10:09;6.90;99.90
8226;DHT22;4154;48.810;9.012;2024-03-02T02:12:37;6.90;99.90
8226;DHT22;4154;48.810;9.012;2024-03-02T02:15:04;6.90;99.90
8226;DHT22;4154;48.810;9.012;2024-03-02T02:17:47;6.70;99.90
8226;DHT22;4154;48.810;9.012;2024-03-02T02:20:12;6.90;99.90
8226;DHT22;4154;48.810;9.012;2024-03-02T02:22:38;6.90;99.90
8226;DHT22;4154;48.810;9.012;2024-03-02T02:25:04;6.90;99.90
8226;DHT22;4154;48.810;9.012;2024-03-02T02:27:29;6.90;99.90
8226;DHT22;4154;48.810;9.012;2024-03-02T02:29:56;6.90;99.90
8226;DHT22;4154;48.810;9.012;2024-03-02T02:32:21;6.90;99.90
8226;DHT22;4154;48.810;9.012;2024-03-02T02:34:48;7.00;99.90
8226;DHT22;4154;48.810;9.012;2024-03-02T02:37:17;7.00;99.90
8226;DHT22;4154;48.810;9.012;2024-03-02T02:39:43;7.00;99.90
8226;DHT22;4154;48.810;9.012;2024-03-02T02:42:09;7.00;99.90
8226;DHT22;4154;48.810;9.012;2024-03-02T02:44:34;7.00;99.90
8226;DHT22;4154;48.810;9.012;2024-03-02T02:47:00;6.90;99.90
8226;DHT22;4154;48.810;9.012;2024-03-02T02:49:26;7.00;99.90
8226;DHT22;4154;48.810;9.012;2024-03-02T02:51:52;7.00;99.90
8226;DHT22;4154;48.810;9.012;2024-03-02T02:54:18;7.00;99.90
8226;DHT22;4154;48.810;9.012;2024-03-02T02:56:43;7.00;99.90
8226;DHT22;4154;48.810;9.012;2024-03-02T02:59:09;7.00;99.90
8226;DHT22;4154;48.810;9.012;2024-03-02T03:01:35;7.00;99.90
8226;DHT22;4154;48.810;9.012;2024-03-02T03:04:00;7.00;99.90
8226;DHT22;4154;48.810;9.012;2024-03-02T03:06:26;7.10;99.90
8226;DHT22;4154;48.810;9.012;2024-03-02T03:08:51;7.00;99.90
8226;DHT22;4154;48.810;9.012;2024-03-02T03:11:17;6.90;99.90
8226;DHT22;4154;48.810;9.012;2024-03-02T03:13:42;6.90;99.90
8226;DHT22;4154;48.810;9.012;2024-03-02T03:16:08;6.90;99.90
8226;DHT22;4154;48.810;9.012;2024-03-02T03:18:34;6.90;99.90
8226;DHT22;4154;48.810;9.012;2024-03-02T03:20:59;6.90;99.90
8226;DHT22;4154;48.810;9.012;2024-03-02T03:23:25;6.90;99.90
8226;DHT22;4154;48.810;9.012;2024-03-02T03:25:51;6.90;99.90
8226;DHT22;4154;48.810;9.012;2024-03-02T03:28:16;6.90;99.90
8226;DHT22;4154;48.810;9.012;2024-03-02T03:30:43;6.80;99.90
8226;DHT22;4154;48.810;9.012;2024-03-02T03:33:08;6.80;99.90
8226;DHT22;4154;48.810;9.012;2024-03-02T03:35:34;6.80;99.90
8226;DHT22;4154;48.810;9.012;2024-03-02T03:38:00;6.80;99.90
8226;DHT22;4154;48.810;9.012;2024-03-02T03:40:26;6.80;99.90
8226;DHT22;4154;48.810;9.012;2024-03-02T03:42:51;6.80;99.90
8226;DHT22;4154;48.810;9.012;2024-03-02T03:45:17;6.80;99.90
8226;DHT22;4154;48.810;9.012;2024-03-02T03:47:43;6.70;99.90
8226;DHT22;4154;48.810;9.012;2024-03-02T03:50:09;6.70;99.90
8226;DHT22;4154;48.810;9.012;2024-03-02T03:52:35;6.70;99.90
8226;DHT22;4154;48.810;9.012;2024-03-02T03:57:27;6.70;99.90
8226;DHT22;4154;48.810;9.012;2024-03-02T04:02:19;6.70;99.90
8226;DHT22;4154;48.810;9.012;2024-03-02T04:07:11;6.70;99.90
8226;DHT22;4154;48.810;9.012;2024-03-02T04:12:03;6.70;99.90
8226;DHT22;4154;48.810;9.012;2024-03-02T04:16:55;6.70;99.90
8226;DHT22;4154;48.810;9.012;2024-03-02T04:19:20;6.70;99.90
8226;DHT22;4154;48.810;9.012;2024-03-02T04:21:46;6.60;99.90
8226;DHT22;4154;48.810;9.012;2024-03-02T04:24:12;6.60;99.90
8226;DHT22;4154;48.810;9.012;2024-03-02T04:26:37;6.60;99.90
8226;DHT22;4154;48.810;9.012;2024-03-02T04:29:03;6.60;99.90
8226;DHT22;4154;48.810;9.012;2024-03-02T04:31:29;6.50;99.90
8226;DHT22;4154;48.810;9.012;2024-03-02T04:33:54;6.50;99.90
8226;DHT22;4154;48.810;9.012;2024-03-02T04:38:47;6.50;99.90
8226;DHT22;4154;48.810;9.012;2024-03-02T04:43:39;6.50;99.90
8226;DHT22;4154;48.810;9.012;2024-03-02T04:46:05;6.50;99.90
8226;DHT22;4154;48.810;9.012;2024-03-02T04:50:59;6.50;99.90
8226;DHT22;4154;48.810;9.012;2024-03-02T04:53:25;6.50;99.90
8226;DHT22;4154;48.810;9.012;2024-03-02T04:55:51;6.50;99.90
8226;DHT22;4154;48.810;9.012;2024-03-02T04:58:36;6.50;99.90
8226;DHT22;4154;48.810;9.012;2024-03-02T05:01:02;6.50;99.90
8226;DHT22;4154;48.810;9.012;2024-03-02T05:03:28;6.50;99.90
8226;DHT22;4154;48.810;9.012;2024-03-02T05:05:53;6.50;99.90
8226;DHT22;4154;48.810;9.012;2024-03-02T05:15:37;6.50;99.90
8226;DHT22;4154;48.810;9.012;2024-03-02T05:18:03;6.30;99.90
8226;DHT22;4154;48.810;9.012;2024-03-02T05:20:30;6.40;99.90
8226;DHT22;4154;48.810;9.012;2024-03-02T05:22:56;6.40;99.90
8226;DHT22;4154;48.810;9.012;2024-03-02T05:27:48;6.20;99.90
8226;DHT22;4154;48.810;9.012;2024-03-02T05:30:13;6.30;99.90
8226;DHT22;4154;48.810;9.012;2024-03-02T05:32:40;6.40;99.90
8226;DHT22;4154;48.810;9.012;2024-03-02T05:35:06;6.40;99.90
8226;DHT22;4154;48.810;9.012;2024-03-02T05:37:33;6.30;99.90
8226;DHT22;4154;48.810;9.012;2024-03-02T05:39:59;6.30;99.90
8226;DHT22;4154;48.810;9.012;2024-03-02T05:42:24;6.30;99.90
8226;DHT22;4154;48.810;9.012;2024-03-02T05:44:50;6.20;99.90
8226;DHT22;4154;48.810;9.012;2024-03-02T05:47:16;6.20;99.90
8226;DHT22;4154;48.810;9.012;2024-03-02T05:49:41;6.20;99.90
8226;DHT22;4154;48.810;9.012;2024-03-02T05:52:08;6.20;99.90
8226;DHT22;4154;48.810;9.012;2024-03-02T05:54:33;6.20;99.90
8226;DHT22;4154;48.810;9.012;2024-03-02T05:56:59;6.20;99.90
8226;DHT22;4154;48.810;9.012;2024-03-02T05:59:42;6.20;99.90
8226;DHT22;4154;48.810;9.012;2024-03-02T06:02:08;6.30;99.90
8226;DHT22;4154;48.810;9.012;2024-03-02T06:04:33;6.30;99.90
8226;DHT22;4154;48.810;9.012;2024-03-02T06:06:59;6.30;99.90
8226;DHT22;4154;48.810;9.012;2024-03-02T06:09:25;6.30;99.90
8226;DHT22;4154;48.810;9.012;2024-03-02T06:11:51;6.30;99.90
8226;DHT22;4154;48.810;9.012;2024-03-02T06:14:17;6.20;99.90
8226;DHT22;4154;48.810;9.012;2024-03-02T06:19:08;6.20;99.90
8226;DHT22;4154;48.810;9.012;2024-03-02T06:21:34;6.00;99.90
8226;DHT22;4154;48.810;9.012;2024-03-02T06:24:00;6.20;99.90
8226;DHT22;4154;48.810;9.012;2024-03-02T06:26:26;6.20;99.90
8226;DHT22;4154;48.810;9.012;2024-03-02T06:28:52;6.20;99.90
8226;DHT22;4154;48.810;9.012;2024-03-02T06:31:17;6.30;99.90
8226;DHT22;4154;48.810;9.012;2024-03-02T06:33:43;6.30;99.90
8226;DHT22;4154;48.810;9.012;2024-03-02T06:36:09;6.30;99.90
8226;DHT22;4154;48.810;9.012;2024-03-02T06:38:35;6.30;99.90
8226;DHT22;4154;48.810;9.012;2024-03-02T06:41:00;6.30;99.90
8226;DHT22;4154;48.810;9.012;2024-03-02T06:43:26;6.30;99.90
8226;DHT22;4154;48.810;9.012;2024-03-02T06:45:52;6.30;99.90
8226;DHT22;4154;48.810;9.012;2024-03-02T06:48:18;6.30;99.90
8226;DHT22;4154;48.810;9.012;2024-03-02T06:50:49;6.30;99.90
8226;DHT22;4154;48.810;9.012;2024-03-02T06:53:16;6.30;99.90
8226;DHT22;4154;48.810;9.012;2024-03-02T06:55:43;6.30;99.90
8226;DHT22;4154;48.810;9.012;2024-03-02T06:58:11;6.30;99.90
8226;DHT22;4154;48.810;9.012;2024-03-02T07:03:07;6.40;99.90
8226;DHT22;4154;48.810;9.012;2024-03-02T07:05:33;7.10;99.90
8226;DHT22;4154;48.810;9.012;2024-03-02T07:07:59;6.60;99.90
8226;DHT22;4154;48.810;9.012;2024-03-02T07:10:26;6.50;99.90
8226;DHT22;4154;48.810;9.012;2024-03-02T07:12:52;6.50;99.90
8226;DHT22;4154;48.810;9.012;2024-03-02T07:15:18;6.60;99.90
8226;DHT22;4154;48.810;9.012;2024-03-02T07:17:52;6.50;99.90
8226;DHT22;4154;48.810;9.012;2024-03-02T07:22:44;6.90;99.90
8226;DHT22;4154;48.810;9.012;2024-03-02T07:25:10;6.70;99.90
8226;DHT22;4154;48.810;9.012;2024-03-02T07:27:35;6.80;99.90
8226;DHT22;4154;48.810;9.012;2024-03-02T07:30:02;6.70;99.90
8226;DHT22;4154;48.810;9.012;2024-03-02T07:32:29;6.70;99.90
8226;DHT22;4154;48.810;9.012;2024-03-02T07:34:54;6.80;99.90
8226;DHT22;4154;48.810;9.012;2024-03-02T07:37:21;6.80;99.90
8226;DHT22;4154;48.810;9.012;2024-03-02T07:39:48;6.90;99.90
8226;DHT22;4154;48.810;9.012;2024-03-02T07:42:13;6.80;99.90
8226;DHT22;4154;48.810;9.012;2024-03-02T07:44:39;6.80;99.90
8226;DHT22;4154;48.810;9.012;2024-03-02T07:47:05;6.80;99.90
8226;DHT22;4154;48.810;9.012;2024-03-02T07:49:31;6.90;99.90
8226;DHT22;4154;48.810;9.012;2024-03-02T07:56:50;6.90;99.90
8226;DHT22;4154;48.810;9.012;2024-03-02T07:59:15;6.90;99.90
8226;DHT22;4154;48.810;9.012;2024-03-02T08:01:41;6.90;99.90
8226;DHT22;4154;48.810;9.012;2024-03-02T08:04:07;6.90;99.90
8226;DHT22;4154;48.810;9.012;2024-03-02T08:09:00;6.90;99.90
8226;DHT22;4154;48.810;9.012;2024-03-02T08:11:26;6.90;99.90
8226;DHT22;4154;48.810;9.012;2024-03-02T08:13:52;7.00;99.90
8226;DHT22;4154;48.810;9.012;2024-03-02T08:16:21;7.00;99.90
8226;DHT22;4154;48.810;9.012;2024-03-02T08:18:51;7.00;99.90
8226;DHT22;4154;48.810;9.012;2024-03-02T08:21:17;7.00;99.90
8226;DHT22;4154;48.810;9.012;2024-03-02T08:23:43;7.10;99.90
8226;DHT22;4154;48.810;9.012;2024-03-02T08:26:09;7.10;99.90
8226;DHT22;4154;48.810;9.012;2024-03-02T08:28:35;7.10;99.90
8226;DHT22;4154;48.810;9.012;2024-03-02T08:31:07;7.20;99.90
8226;DHT22;4154;48.810;9.012;2024-03-02T08:33:33;7.40;99.90
8226;DHT22;4154;48.810;9.012;2024-03-02T08:36:00;7.40;99.90
8226;DHT22;4154;48.810;9.012;2024-03-02T08:38:26;7.50;99.90
8226;DHT22;4154;48.810;9.012;2024-03-02T08:40:52;7.50;99.90
8226;DHT22;4154;48.810;9.012;2024-03-02T08:43:19;7.60;99.80
8226;DHT22;4154;48.810;9.012;2024-03-02T08:45:45;7.60;99.80
8226;DHT22;4154;48.810;9.012;2024-03-02T08:48:10;7.60;99.70
8226;DHT22;4154;48.810;9.012;2024-03-02T08:50:36;7.70;99.90
8226;DHT22;4154;48.810;9.012;2024-03-02T08:53:03;7.80;99.80
8226;DHT22;4154;48.810;9.012;2024-03-02T08:55:29;7.90;99.50
8226;DHT22;4154;48.810;9.012;2024-03-02T08:57:55;7.90;99.90
8226;DHT22;4154;48.810;9.012;2024-03-02T09:00:21;8.00;99.50
8226;DHT22;4154;48.810;9.012;2024-03-02T09:02:48;8.00;99.40
8226;DHT22;4154;48.810;9.012;2024-03-02T09:05:14;8.10;99.40
8226;DHT22;4154;48.810;9.012;2024-03-02T09:07:40;8.10;99.20
8226;DHT22;4154;48.810;9.012;2024-03-02T09:10:06;8.20;99.20
8226;DHT22;4154;48.810;9.012;2024-03-02T09:12:33;8.30;99.10
8226;DHT22;4154;48.810;9.012;2024-03-02T09:15:00;8.30;99.00
8226;DHT22;4154;48.810;9.012;2024-03-02T09:17:26;8.40;98.90
8226;DHT22;4154;48.810;9.012;2024-03-02T09:19:52;8.40;98.70
8226;DHT22;4154;48.810;9.012;2024-03-02T09:22:21;8.50;98.70
8226;DHT22;4154;48.810;9.012;2024-03-02T09:24:48;8.60;98.50
8226;DHT22;4154;48.810;9.012;2024-03-02T09:27:14;8.70;98.40
8226;DHT22;4154;48.810;9.012;2024-03-02T09:29:39;8.80;98.30
8226;DHT22;4154;48.810;9.012;2024-03-02T09:32:06;8.80;98.10
8226;DHT22;4154;48.810;9.012;2024-03-02T09:34:32;8.90;98.10
8226;DHT22;4154;48.810;9.012;2024-03-02T09:36:58;8.90;98.20
8226;DHT22;4154;48.810;9.012;2024-03-02T09:39:24;9.00;97.70
8226;DHT22;4154;48.810;9.012;2024-03-02T09:41:53;9.10;97.60
8226;DHT22;4154;48.810;9.012;2024-03-02T09:44:19;9.20;97.60
8226;DHT22;4154;48.810;9.012;2024-03-02T09:46:48;9.20;97.30
8226;DHT22;4154;48.810;9.012;2024-03-02T09:49:14;9.30;97.40
8226;DHT22;4154;48.810;9.012;2024-03-02T09:51:40;9.40;96.90
8226;DHT22;4154;48.810;9.012;2024-03-02T09:54:12;9.50;96.70
8226;DHT22;4154;48.810;9.012;2024-03-02T09:56:39;9.60;96.70
8226;DHT22;4154;48.810;9.012;2024-03-02T09:59:04;9.60;96.90
8226;DHT22;4154;48.810;9.012;2024-03-02T10:01:31;9.70;96.90
8226;DHT22;4154;48.810;9.012;2024-03-02T10:03:59;10.20;99.90
8226;DHT22;4154;48.810;9.012;2024-03-02T10:06:26;9.80;96.50
8226;DHT22;4154;48.810;9.012;2024-03-02T10:08:53;9.90;96.00
8226;DHT22;4154;48.810;9.012;2024-03-02T10:11:25;10.00;95.70
8226;DHT22;4154;48.810;9.012;2024-03-02T10:14:13;10.00;95.30
8226;DHT22;4154;48.810;9.012;2024-03-02T10:16:44;10.10;95.50
8226;DHT22;4154;48.810;9.012;2024-03-02T10:19:22;10.20;95.40
8226;DHT22;4154;48.810;9.012;2024-03-02T10:21:53;10.30;95.00
8226;DHT22;4154;48.810;9.012;2024-03-02T10:24:20;10.40;94.90
8226;DHT22;4154;48.810;9.012;2024-03-02T10:26:48;10.50;94.50
8226;DHT22;4154;48.810;9.012;2024-03-02T10:29:14;10.60;94.30
8226;DHT22;4154;48.810;9.012;2024-03-02T10:31:41;10.80;94.00
8226;DHT22;4154;48.810;9.012;2024-03-02T10:34:09;10.80;94.10
8226;DHT22;4154;48.810;9.012;2024-03-02T10:36:36;11.00;93.70
8226;DHT22;4154;48.810;9.012;2024-03-02T10:39:06;11.10;93.70
8226;DHT22;4154;48.810;9.012;2024-03-02T10:41:35;11.20;93.70
8226;DHT22;4154;48.810;9.012;2024-03-02T10:44:06;11.30;93.50
8226;DHT22;4154;48.810;9.012;2024-03-02T10:46:36;11.40;92.70
8226;DHT22;4154;48.810;9.012;2024-03-02T10:49:03;11.50;93.20
8226;DHT22;4154;48.810;9.012;2024-03-02T10:51:31;11.50;93.40
8226;DHT22;4154;48.810;9.012;2024-03-02T10:54:00;11.60;93.50
8226;DHT22;4154;48.810;9.012;2024-03-02T10:56:31;11.60;93.70
8226;DHT22;4154;48.810;9.012;2024-03-02T10:59:41;11.80;92.80
8226;DHT22;4154;48.810;9.012;2024-03-02T11:02:01;11.90;92.40
8226;DHT22;4154;48.810;9.012;2024-03-02T11:04:30;11.90;91.80
8226;DHT22;4154;48.810;9.012;2024-03-02T11:07:02;12.00;92.20
8226;DHT22;4154;48.810;9.012;2024-03-02T11:09:33;12.10;92.10
8226;DHT22;4154;48.810;9.012;2024-03-02T11:12:12;12.10;91.50
8226;DHT22;4154;48.810;9.012;2024-03-02T11:14:41;12.20;91.90
8226;DHT22;4154;48.810;9.012;2024-03-02T11:17:11;12.30;92.30
8226;DHT22;4154;48.810;9.012;2024-03-02T11:19:41;12.30;91.90
8226;DHT22;4154;48.810;9.012;2024-03-02T11:22:08;12.30;92.00
8226;DHT22;4154;48.810;9.012;2024-03-02T11:24:35;12.40;92.20
8226;DHT22;4154;48.810;9.012;2024-03-02T11:27:05;12.50;92.10
8226;DHT22;4154;48.810;9.012;2024-03-02T11:32:02;12.60;92.50
8226;DHT22;4154;48.810;9.012;2024-03-02T11:34:36;12.70;92.60
8226;DHT22;4154;48.810;9.012;2024-03-02T11:37:04;12.70;91.90
8226;DHT22;4154;48.810;9.012;2024-03-02T11:39:31;12.70;92.10
8226;DHT22;4154;48.810;9.012;2024-03-02T11:41:57;12.80;92.40
8226;DHT22;4154;48.810;9.012;2024-03-02T11:44:27;12.90;91.90
8226;DHT22;4154;48.810;9.012;2024-03-02T11:47:06;12.90;91.60
8226;DHT22;4154;48.810;9.012;2024-03-02T11:49:50;12.90;91.80
8226;DHT22;4154;48.810;9.012;2024-03-02T11:52:20;13.00;91.90
8226;DHT22;4154;48.810;9.012;2024-03-02T11:54:48;13.00;91.70
8226;DHT22;4154;48.810;9.012;2024-03-02T11:57:18;13.00;91.60
8226;DHT22;4154;48.810;9.012;2024-03-02T11:59:46;13.10;91.90
8226;DHT22;4154;48.810;9.012;2024-03-02T12:02:21;13.10;91.40
8226;DHT22;4154;48.810;9.012;2024-03-02T12:04:48;13.10;90.50
8226;DHT22;4154;48.810;9.012;2024-03-02T12:07:22;13.20;90.30
8226;DHT22;4154;48.810;9.012;2024-03-02T12:09:49;13.30;90.80
8226;DHT22;4154;48.810;9.012;2024-03-02T12:12:25;13.30;90.30
8226;DHT22;4154;48.810;9.012;2024-03-02T12:14:52;13.50;90.20
8226;DHT22;4154;48.810;9.012;2024-03-02T12:17:21;13.50;90.20
8226;DHT22;4154;48.810;9.012;2024-03-02T12:19:47;13.70;91.90
8226;DHT22;4154;48.810;9.012;2024-03-02T12:22:13;13.80;91.50
8226;DHT22;4154;48.810;9.012;2024-03-02T12:24:41;13.80;91.50
8226;DHT22;4154;48.810;9.012;2024-03-02T12:27:11;13.90;91.40
8226;DHT22;4154;48.810;9.012;2024-03-02T12:29:38;14.00;90.50
8226;DHT22;4154;48.810;9.012;2024-03-02T12:32:05;14.00;89.70
8226;DHT22;4154;48.810;9.012;2024-03-02T12:34:31;14.00;90.10
8226;DHT22;4154;48.810;9.012;2024-03-02T12:36:57;14.10;88.90
8226;DHT22;4154;48.810;9.012;2024-03-02T12:39:23;14.10;89.40
8226;DHT22;4154;48.810;9.012;2024-03-02T12:41:49;14.10;90.50
8226;DHT22;4154;48.810;9.012;2024-03-02T12:44:16;14.10;90.40
8226;DHT22;4154;48.810;9.012;2024-03-02T12:46:43;14.20;89.90
8226;DHT22;4154;48.810;9.012;2024-03-02T12:49:11;14.30;88.60
8226;DHT22;4154;48.810;9.012;2024-03-02T12:51:40;14.30;86.60
8226;DHT22;4154;48.810;9.012;2024-03-02T12:54:10;14.30;85.60
8226;DHT22;4154;48.810;9.012;2024-03-02T12:56:37;14.30;85.50
8226;DHT22;4154;48.810;9.012;2024-03-02T12:59:03;14.40;86.20
8226;DHT22;4154;48.810;9.012;2024-03-02T13:01:30;14.40;88.60
8226;DHT22;4154;48.810;9.012;2024-03-02T13:03:57;14.50;87.30
8226;DHT22;4154;48.810;9.012;2024-03-02T13:06:24;14.50;85.60
8226;DHT22;4154;48.810;9.012;2024-03-02T13:08:54;14.50;85.50
8226;DHT22;4154;48.810;9.012;2024-03-02T13:11:21;14.50;85.60
8226;DHT22;4154;48.810;9.012;2024-03-02T13:13:49;14.60;83.70
8226;DHT22;4154;48.810;9.012;2024-03-02T13:16:15;14.60;84.40
8226;DHT22;4154;48.810;9.012;2024-03-02T13:18:41;14.60;84.00
8226;DHT22;4154;48.810;9.012;2024-03-02T13:21:08;14.60;84.10
8226;DHT22;4154;48.810;9.012;2024-03-02T13:23:34;14.60;84.50
8226;DHT22;4154;48.810;9.012;2024-03-02T13:26:00;14.60;84.70
8226;DHT22;4154;48.810;9.012;2024-03-02T13:28:26;14.60;85.20
8226;DHT22;4154;48.810;9.012;2024-03-02T13:30:52;14.70;84.20
8226;DHT22;4154;48.810;9.012;2024-03-02T13:33:18;14.60;85.20
8226;DHT22;4154;48.810;9.012;2024-03-02T13:35:50;14.60;84.40
8226;DHT22;4154;48.810;9.012;2024-03-02T13:38:19;14.70;85.30
8226;DHT22;4154;48.810;9.012;2024-03-02T13:40:49;14.70;85.50
8226;DHT22;4154;48.810;9.012;2024-03-02T13:43:18;14.70;85.40
8226;DHT22;4154;48.810;9.012;2024-03-02T13:45:44;14.70;85.60
8226;DHT22;4154;48.810;9.012;2024-03-02T13:48:10;14.70;85.10
8226;DHT22;4154;48.810;9.012;2024-03-02T13:50:35;14.70;85.70
8226;DHT22;4154;48.810;9.012;2024-03-02T13:53:01;14.60;85.90
8226;DHT22;4154;48.810;9.012;2024-03-02T13:55:28;14.60;86.40
8226;DHT22;4154;48.810;9.012;2024-03-02T13:57:54;14.50;92.40
8226;DHT22;4154;48.810;9.012;2024-03-02T14:00:19;14.70;84.80
8226;DHT22;4154;48.810;9.012;2024-03-02T14:02:46;14.60;85.50
8226;DHT22;4154;48.810;9.012;2024-03-02T14:05:12;14.60;86.50
8226;DHT22;4154;48.810;9.012;2024-03-02T14:07:39;14.60;86.50
8226;DHT22;4154;48.810;9.012;2024-03-02T14:10:06;14.60;87.30
8226;DHT22;4154;48.810;9.012;2024-03-02T14:12:32;14.60;86.40
8226;DHT22;4154;48.810;9.012;2024-03-02T14:14:58;14.50;86.10
8226;DHT22;4154;48.810;9.012;2024-03-02T14:17:25;14.50;86.30
8226;DHT22;4154;48.810;9.012;2024-03-02T14:19:50;14.50;86.80
8226;DHT22;4154;48.810;9.012;2024-03-02T14:22:19;14.50;86.90
8226;DHT22;4154;48.810;9.012;2024-03-02T14:24:45;14.50;87.20
8226;DHT22;4154;48.810;9.012;2024-03-02T14:27:11;14.60;85.90
8226;DHT22;4154;48.810;9.012;2024-03-02T14:29:38;14.70;85.90
8226;DHT22;4154;48.810;9.012;2024-03-02T14:32:05;14.70;86.10
8226;DHT22;4154;48.810;9.012;2024-03-02T14:34:31;14.80;85.80
8226;DHT22;4154;48.810;9.012;2024-03-02T14:36:58;14.90;84.90
8226;DHT22;4154;48.810;9.012;2024-03-02T14:39:25;14.90;84.60
8226;DHT22;4154;48.810;9.012;2024-03-02T14:41:51;15.00;84.60
8226;DHT22;4154;48.810;9.012;2024-03-02T14:44:17;15.10;84.20
8226;DHT22;4154;48.810;9.012;2024-03-02T14:46:43;15.10;84.50
8226;DHT22;4154;48.810;9.012;2024-03-02T14:49:12;15.10;84.70
8226;DHT22;4154;48.810;9.012;2024-03-02T14:51:38;15.10;84.90
8226;DHT22;4154;48.810;9.012;2024-03-02T14:54:04;15.10;84.20
8226;DHT22;4154;48.810;9.012;2024-03-02T14:56:30;15.10;84.50
8226;DHT22;4154;48.810;9.012;2024-03-02T14:58:56;15.10;84.40
8226;DHT22;4154;48.810;9.012;2024-03-02T15:01:21;15.10;84.40
8226;DHT22;4154;48.810;9.012;2024-03-02T15:03:50;15.10;85.60
8226;DHT22;4154;48.810;9.012;2024-03-02T15:06:16;15.10;84.90
8226;DHT22;4154;48.810;9.012;2024-03-02T15:08:41;15.20;85.00
8226;DHT22;4154;48.810;9.012;2024-03-02T15:16:00;15.00;96.00
8226;DHT22;4154;48.810;9.012;2024-03-02T15:18:26;15.00;86.00
8226;DHT22;4154;48.810;9.012;2024-03-02T15:20:52;15.00;85.90
8226;DHT22;4154;48.810;9.012;2024-03-02T15:23:18;15.00;85.00
8226;DHT22;4154;48.810;9.012;2024-03-02T15:25:44;14.90;85.00
8226;DHT22;4154;48.810;9.012;2024-03-02T15:28:09;14.90;95.90
8226;DHT22;4154;48.810;9.012;2024-03-02T15:30:35;14.60;96.10
8226;DHT22;4154;48.810;9.012;2024-03-02T15:33:01;14.70;86.30
8226;DHT22;4154;48.810;9.012;2024-03-02T15:35:27;14.70;87.00
8226;DHT22;4154;48.810;9.012;2024-03-02T15:37:53;14.40;96.30
8226;DHT22;4154;48.810;9.012;2024-03-02T15:40:18;14.60;96.60
8226;DHT22;4154;48.810;9.012;2024-03-02T15:42:44;14.50;87.70
8226;DHT22;4154;48.810;9.012;2024-03-02T15:45:10;14.50;88.10
8226;DHT22;4154;48.810;9.012;2024-03-02T15:47:35;14.40;88.30
8226;DHT22;4154;48.810;9.012;2024-03-02T15:50:02;14.40;89.40
8226;DHT22;4154;48.810;9.012;2024-03-02T15:52:29;14.30;89.80
8226;DHT22;4154;48.810;9.012;2024-03-02T15:54:55;14.30;90.00
8226;DHT22;4154;48.810;9.012;2024-03-02T15:57:21;14.50;97.80
8226;DHT22;4154;48.810;9.012;2024-03-02T15:59:48;14.10;97.90
8226;DHT22;4154;48.810;9.012;2024-03-02T16:02:15;14.20;90.20
8226;DHT22;4154;48.810;9.012;2024-03-02T16:04:41;14.10;98.10
8226;DHT22;4154;48.810;9.012;2024-03-02T16:07:07;14.10;90.30
8226;DHT22;4154;48.810;9.012;2024-03-02T16:09:33;14.00;97.30
8226;DHT22;4154;48.810;9.012;2024-03-02T16:11:58;13.90;97.00
8226;DHT22;4154;48.810;9.012;2024-03-02T16:14:24;13.90;88.30
8226;DHT22;4154;48.810;9.012;2024-03-02T16:19:16;13.90;87.50
8226;DHT22;4154;48.810;9.012;2024-03-02T16:26:34;13.80;87.10
8226;DHT22;4154;48.810;9.012;2024-03-02T16:31:26;13.60;87.90
8226;DHT22;4154;48.810;9.012;2024-03-02T16:36:18;13.50;96.70
8226;DHT22;4154;48.810;9.012;2024-03-02T16:41:12;13.20;96.70
8226;DHT22;4154;48.810;9.012;2024-03-02T16:46:04;13.30;96.30
8226;DHT22;4154;48.810;9.012;2024-03-02T16:48:31;13.00;96.30
8226;DHT22;4154;48.810;9.012;2024-03-02T16:50:57;13.20;87.00
8226;DHT22;4154;48.810;9.012;2024-03-02T16:53:23;13.10;96.80
8226;DHT22;4154;48.810;9.012;2024-03-02T16:58:15;13.10;87.20
8226;DHT22;4154;48.810;9.012;2024-03-02T17:00:43;13.20;97.30
8226;DHT22;4154;48.810;9.012;2024-03-02T17:03:10;12.90;97.30
8226;DHT22;4154;48.810;9.012;2024-03-02T17:08:02;12.90;97.60
8226;DHT22;4154;48.810;9.012;2024-03-02T17:12:53;12.80;89.20
8226;DHT22;4154;48.810;9.012;2024-03-02T17:15:21;12.70;90.10
8226;DHT22;4154;48.810;9.012;2024-03-02T17:17:47;12.30;97.80
8226;DHT22;4154;48.810;9.012;2024-03-02T17:22:40;12.50;98.20
8226;DHT22;4154;48.810;9.012;2024-03-02T17:25:06;12.40;98.60
8226;DHT22;4154;48.810;9.012;2024-03-02T17:27:32;12.30;98.70
8226;DHT22;4154;48.810;9.012;2024-03-02T17:29:58;12.60;97.70
8226;DHT22;4154;48.810;9.012;2024-03-02T17:34:50;12.20;99.20
8226;DHT22;4154;48.810;9.012;2024-03-02T17:37:15;12.10;99.30
8226;DHT22;4154;48.810;9.012;2024-03-02T17:39:41;12.30;99.60
8226;DHT22;4154;48.810;9.012;2024-03-02T17:42:06;12.10;99.70